sensor_id;sensor_type;location;lat;lon;timestamp;P1;durP1;ratioP1;P2;durP2;ratioP2
58982;SDS011;44771;49.982;8.560;2023-03-14T00:01:55;12.37;;;11.48;;
58982;SDS011;44771;49.982;8.560;2023-03-14T00:06:57;11.82;;;10.93;;
58982;SDS011;44771;49.982;8.560;2023-03-14T00:12:02;11.55;;;10.85;;
58982;SDS011;44771;49.982;8.560;2023-03-14T00:17:05;11.90;;;10.90;;
58982;SDS011;44771;49.982;8.560;2023-03-14T00:22:07;11.50;;;10.80;;
58982;SDS011;44771;49.982;8.560;2023-03-14T00:27:10;12.15;;;11.00;;
58982;SDS011;44771;49.982;8.560;2023-03-14T00:32:13;10.48;;;9.68;;
58982;SDS011;44771;49.982;8.560;2023-03-14T00:37:15;11.38;;;10.57;;
58982;SDS011;44771;49.982;8.560;2023-03-14T00:42:18;10.75;;;9.65;;
58982;SDS011;44771;49.982;8.560;2023-03-14T00:47:20;11.75;;;10.75;;
58982;SDS011;44771;49.982;8.560;2023-03-14T00:52:22;10.38;;;9.55;;
58982;SDS011;44771;49.982;8.560;2023-03-14T00:57:25;11.80;;;10.95;;
58982;SDS011;44771;49.982;8.560;2023-03-14T01:02:27;12.02;;;10.77;;
58982;SDS011;44771;49.982;8.560;2023-03-14T01:07:29;10.05;;;9.45;;
58982;SDS011;44771;49.982;8.560;2023-03-14T01:12:32;10.73;;;10.13;;
58982;SDS011;44771;49.982;8.560;2023-03-14T01:17:34;11.57;;;10.85;;
58982;SDS011;44771;49.982;8.560;2023-03-14T01:22:37;11.18;;;10.27;;
58982;SDS011;44771;49.982;8.560;2023-03-14T01:27:40;11.75;;;10.95;;
58982;SDS011;44771;49.982;8.560;2023-03-14T01:32:42;11.18;;;10.38;;
58982;SDS011;44771;49.982;8.560;2023-03-14T01:37:44;11.90;;;10.32;;
58982;SDS011;44771;49.982;8.560;2023-03-14T01:42:52;11.30;;;10.60;;
58982;SDS011;44771;49.982;8.560;2023-03-14T01:47:55;10.73;;;10.02;;
58982;SDS011;44771;49.982;8.560;2023-03-14T01:52:57;11.75;;;11.02;;
58982;SDS011;44771;49.982;8.560;2023-03-14T01:59:13;11.30;;;10.07;;
58982;SDS011;44771;49.982;8.560;2023-03-14T02:04:15;12.13;;;11.07;;
58982;SDS011;44771;49.982;8.560;2023-03-14T02:09:18;11.77;;;10.77;;
58982;SDS011;44771;49.982;8.560;2023-03-14T02:14:25;10.52;;;9.57;;
58982;SDS011;44771;49.982;8.560;2023-03-14T02:19:35;12.23;;;9.95;;
58982;SDS011;44771;49.982;8.560;2023-03-14T02:24:46;11.32;;;10.50;;
58982;SDS011;44771;49.982;8.560;2023-03-14T02:30:00;11.60;;;10.88;;
58982;SDS011;44771;49.982;8.560;2023-03-14T02:35:06;11.02;;;10.10;;
58982;SDS011;44771;49.982;8.560;2023-03-14T02:40:10;11.10;;;10.30;;
58982;SDS011;44771;49.982;8.560;2023-03-14T02:45:35;11.43;;;10.55;;
58982;SDS011;44771;49.982;8.560;2023-03-14T02:50:41;11.27;;;10.57;;
58982;SDS011;44771;49.982;8.560;2023-03-14T02:55:44;12.37;;;11.55;;
58982;SDS011;44771;49.982;8.560;2023-03-14T03:00:48;12.50;;;11.30;;
58982;SDS011;44771;49.982;8.560;2023-03-14T03:05:50;11.65;;;10.05;;
58982;SDS011;44771;49.982;8.560;2023-03-14T03:10:54;13.40;;;11.20;;
58982;SDS011;44771;49.982;8.560;2023-03-14T03:15:59;11.40;;;10.73;;
58982;SDS011;44771;49.982;8.560;2023-03-14T03:21:01;13.25;;;11.00;;
58982;SDS011;44771;49.982;8.560;2023-03-14T03:26:04;11.57;;;10.60;;
58982;SDS011;44771;49.982;8.560;2023-03-14T03:31:09;11.52;;;10.75;;
58982;SDS011;44771;49.982;8.560;2023-03-14T03:36:12;12.23;;;11.32;;
58982;SDS011;44771;49.982;8.560;2023-03-14T03:41:13;12.35;;;11.23;;
58982;SDS011;44771;49.982;8.560;2023-03-14T03:46:16;11.65;;;10.90;;
58982;SDS011;44771;49.982;8.560;2023-03-14T03:51:18;11.25;;;10.35;;
58982;SDS011;44771;49.982;8.560;2023-03-14T03:56:20;11.90;;;10.82;;
58982;SDS011;44771;49.982;8.560;2023-03-14T04:01:23;12.02;;;10.88;;
58982;SDS011;44771;49.982;8.560;2023-03-14T04:06:25;12.48;;;10.48;;
58982;SDS011;44771;49.982;8.560;2023-03-14T04:11:27;11.52;;;10.60;;
58982;SDS011;44771;49.982;8.560;2023-03-14T04:16:30;11.48;;;10.45;;
58982;SDS011;44771;49.982;8.560;2023-03-14T04:21:32;12.07;;;10.98;;
58982;SDS011;44771;49.982;8.560;2023-03-14T04:26:34;11.98;;;10.90;;
58982;SDS011;44771;49.982;8.560;2023-03-14T04:31:37;14.80;;;12.30;;
58982;SDS011;44771;49.982;8.560;2023-03-14T04:36:39;12.45;;;11.68;;
58982;SDS011;44771;49.982;8.560;2023-03-14T04:41:41;12.00;;;10.95;;
58982;SDS011;44771;49.982;8.560;2023-03-14T04:46:44;12.57;;;11.32;;
58982;SDS011;44771;49.982;8.560;2023-03-14T04:51:46;12.90;;;11.85;;
58982;SDS011;44771;49.982;8.560;2023-03-14T04:56:48;11.80;;;10.98;;
58982;SDS011;44771;49.982;8.560;2023-03-14T05:01:51;15.13;;;11.93;;
58982;SDS011;44771;49.982;8.560;2023-03-14T05:06:53;11.98;;;11.12;;
58982;SDS011;44771;49.982;8.560;2023-03-14T05:11:55;12.90;;;11.82;;
58982;SDS011;44771;49.982;8.560;2023-03-14T05:16:58;15.10;;;11.18;;
58982;SDS011;44771;49.982;8.560;2023-03-14T05:21:59;13.80;;;11.32;;
58982;SDS011;44771;49.982;8.560;2023-03-14T05:27:01;13.02;;;12.10;;
58982;SDS011;44771;49.982;8.560;2023-03-14T05:32:05;11.48;;;10.60;;
58982;SDS011;44771;49.982;8.560;2023-03-14T05:37:07;11.65;;;10.57;;
58982;SDS011;44771;49.982;8.560;2023-03-14T05:42:08;12.07;;;10.82;;
58982;SDS011;44771;49.982;8.560;2023-03-14T05:47:12;10.02;;;9.43;;
58982;SDS011;44771;49.982;8.560;2023-03-14T05:52:13;11.88;;;10.98;;
58982;SDS011;44771;49.982;8.560;2023-03-14T05:57:15;12.32;;;11.23;;
58982;SDS011;44771;49.982;8.560;2023-03-14T06:02:18;10.75;;;9.95;;
58982;SDS011;44771;49.982;8.560;2023-03-14T06:07:20;11.43;;;10.57;;
58982;SDS011;44771;49.982;8.560;2023-03-14T06:12:22;12.32;;;11.32;;
58982;SDS011;44771;49.982;8.560;2023-03-14T06:17:25;11.07;;;10.25;;
58982;SDS011;44771;49.982;8.560;2023-03-14T06:22:27;11.52;;;10.63;;
58982;SDS011;44771;49.982;8.560;2023-03-14T06:27:29;12.25;;;11.38;;
58982;SDS011;44771;49.982;8.560;2023-03-14T06:32:32;12.10;;;11.10;;
58982;SDS011;44771;49.982;8.560;2023-03-14T06:37:34;11.48;;;10.63;;
58982;SDS011;44771;49.982;8.560;2023-03-14T06:42:36;12.63;;;11.38;;
58982;SDS011;44771;49.982;8.560;2023-03-14T06:47:39;11.80;;;10.90;;
58982;SDS011;44771;49.982;8.560;2023-03-14T06:52:41;11.07;;;10.27;;
58982;SDS011;44771;49.982;8.560;2023-03-14T06:57:42;11.05;;;10.13;;
58982;SDS011;44771;49.982;8.560;2023-03-14T07:02:46;12.57;;;11.68;;
58982;SDS011;44771;49.982;8.560;2023-03-14T07:07:48;10.90;;;10.18;;
58982;SDS011;44771;49.982;8.560;2023-03-14T07:12:49;11.70;;;10.88;;
58982;SDS011;44771;49.982;8.560;2023-03-14T07:17:53;12.80;;;11.75;;
58982;SDS011;44771;49.982;8.560;2023-03-14T07:22:54;16.75;;;11.77;;
58982;SDS011;44771;49.982;8.560;2023-03-14T07:27:56;11.80;;;10.70;;
58982;SDS011;44771;49.982;8.560;2023-03-14T07:32:59;11.88;;;10.90;;
58982;SDS011;44771;49.982;8.560;2023-03-14T07:38:01;11.65;;;10.75;;
58982;SDS011;44771;49.982;8.560;2023-03-14T07:43:03;10.73;;;10.23;;
58982;SDS011;44771;49.982;8.560;2023-03-14T07:48:06;11.48;;;10.85;;
58982;SDS011;44771;49.982;8.560;2023-03-14T07:53:08;11.70;;;10.88;;
58982;SDS011;44771;49.982;8.560;2023-03-14T07:58:10;11.38;;;10.57;;
58982;SDS011;44771;49.982;8.560;2023-03-14T08:03:14;12.20;;;11.27;;
58982;SDS011;44771;49.982;8.560;2023-03-14T08:08:16;12.25;;;11.10;;
58982;SDS011;44771;49.982;8.560;2023-03-14T08:13:18;12.35;;;11.50;;
58982;SDS011;44771;49.982;8.560;2023-03-14T08:18:21;10.10;;;9.18;;
58982;SDS011;44771;49.982;8.560;2023-03-14T08:23:23;12.70;;;11.70;;
58982;SDS011;44771;49.982;8.560;2023-03-14T08:28:24;12.65;;;11.50;;
58982;SDS011;44771;49.982;8.560;2023-03-14T08:33:28;11.32;;;10.43;;
58982;SDS011;44771;49.982;8.560;2023-03-14T08:38:31;11.43;;;10.60;;
58982;SDS011;44771;49.982;8.560;2023-03-14T08:43:32;10.60;;;9.95;;
58982;SDS011;44771;49.982;8.560;2023-03-14T08:48:36;11.75;;;11.00;;
58982;SDS011;44771;49.982;8.560;2023-03-14T08:53:37;11.23;;;10.50;;
58982;SDS011;44771;49.982;8.560;2023-03-14T08:58:40;13.07;;;12.00;;
58982;SDS011;44771;49.982;8.560;2023-03-14T09:03:43;11.12;;;10.48;;
58982;SDS011;44771;49.982;8.560;2023-03-14T09:08:45;10.93;;;10.35;;
58982;SDS011;44771;49.982;8.560;2023-03-14T09:13:47;11.40;;;10.80;;
58982;SDS011;44771;49.982;8.560;2023-03-14T09:18:50;11.35;;;10.75;;
58982;SDS011;44771;49.982;8.560;2023-03-14T09:23:52;11.77;;;11.02;;
58982;SDS011;44771;49.982;8.560;2023-03-14T09:28:53;12.30;;;11.50;;
58982;SDS011;44771;49.982;8.560;2023-03-14T09:34:00;13.02;;;11.90;;
58982;SDS011;44771;49.982;8.560;2023-03-14T09:39:01;12.05;;;11.25;;
58982;SDS011;44771;49.982;8.560;2023-03-14T09:44:04;11.23;;;10.63;;
58982;SDS011;44771;49.982;8.560;2023-03-14T09:49:14;11.73;;;11.12;;
58982;SDS011;44771;49.982;8.560;2023-03-14T09:54:26;11.68;;;10.90;;
58982;SDS011;44771;49.982;8.560;2023-03-14T09:59:32;12.37;;;11.63;;
58982;SDS011;44771;49.982;8.560;2023-03-14T10:04:37;12.13;;;11.52;;
58982;SDS011;44771;49.982;8.560;2023-03-14T10:14:45;12.85;;;12.15;;
58982;SDS011;44771;49.982;8.560;2023-03-14T10:19:54;11.80;;;11.10;;
58982;SDS011;44771;49.982;8.560;2023-03-14T10:24:59;12.25;;;11.23;;
58982;SDS011;44771;49.982;8.560;2023-03-14T10:30:06;11.68;;;11.07;;
58982;SDS011;44771;49.982;8.560;2023-03-14T10:35:30;12.27;;;11.60;;
58982;SDS011;44771;49.982;8.560;2023-03-14T10:40:37;11.60;;;10.90;;
58982;SDS011;44771;49.982;8.560;2023-03-14T10:45:41;11.98;;;11.38;;
58982;SDS011;44771;49.982;8.560;2023-03-14T10:50:48;10.90;;;10.40;;
58982;SDS011;44771;49.982;8.560;2023-03-14T10:55:57;12.15;;;11.45;;
58982;SDS011;44771;49.982;8.560;2023-03-14T11:01:07;11.55;;;10.95;;
58982;SDS011;44771;49.982;8.560;2023-03-14T11:06:22;10.73;;;10.23;;
58982;SDS011;44771;49.982;8.560;2023-03-14T11:11:29;10.30;;;9.80;;
58982;SDS011;44771;49.982;8.560;2023-03-14T11:16:32;11.88;;;11.18;;
58982;SDS011;44771;49.982;8.560;2023-03-14T11:21:43;10.80;;;10.27;;
58982;SDS011;44771;49.982;8.560;2023-03-14T11:26:53;12.55;;;11.80;;
58982;SDS011;44771;49.982;8.560;2023-03-14T11:32:01;11.63;;;11.02;;
58982;SDS011;44771;49.982;8.560;2023-03-14T11:37:06;11.35;;;10.80;;
58982;SDS011;44771;49.982;8.560;2023-03-14T11:42:15;10.70;;;10.20;;
58982;SDS011;44771;49.982;8.560;2023-03-14T11:47:19;11.38;;;10.82;;
58982;SDS011;44771;49.982;8.560;2023-03-14T11:52:29;11.40;;;10.80;;
58982;SDS011;44771;49.982;8.560;2023-03-14T11:57:35;12.02;;;11.23;;
58982;SDS011;44771;49.982;8.560;2023-03-14T12:02:40;11.98;;;11.38;;
58982;SDS011;44771;49.982;8.560;2023-03-14T12:07:56;10.80;;;10.18;;
58982;SDS011;44771;49.982;8.560;2023-03-14T12:13:20;11.30;;;10.80;;
58982;SDS011;44771;49.982;8.560;2023-03-14T12:18:26;11.80;;;11.27;;
58982;SDS011;44771;49.982;8.560;2023-03-14T12:23:34;11.85;;;11.32;;
58982;SDS011;44771;49.982;8.560;2023-03-14T12:28:42;12.43;;;11.80;;
58982;SDS011;44771;49.982;8.560;2023-03-14T12:33:45;11.35;;;10.75;;
58982;SDS011;44771;49.982;8.560;2023-03-14T12:39:03;10.93;;;10.43;;
58982;SDS011;44771;49.982;8.560;2023-03-14T12:49:45;12.27;;;11.68;;
58982;SDS011;44771;49.982;8.560;2023-03-14T12:54:51;11.73;;;11.12;;
58982;SDS011;44771;49.982;8.560;2023-03-14T12:59:59;11.12;;;10.63;;
58982;SDS011;44771;49.982;8.560;2023-03-14T13:05:03;11.25;;;10.75;;
58982;SDS011;44771;49.982;8.560;2023-03-14T13:10:21;10.50;;;10.00;;
58982;SDS011;44771;49.982;8.560;2023-03-14T13:15:24;11.98;;;11.38;;
58982;SDS011;44771;49.982;8.560;2023-03-14T13:20:31;10.82;;;10.32;;
58982;SDS011;44771;49.982;8.560;2023-03-14T13:25:38;12.10;;;11.50;;
58982;SDS011;44771;49.982;8.560;2023-03-14T13:30:40;12.48;;;11.88;;
58982;SDS011;44771;49.982;8.560;2023-03-14T13:35:45;12.32;;;11.73;;
58982;SDS011;44771;49.982;8.560;2023-03-14T13:40:50;11.90;;;11.30;;
58982;SDS011;44771;49.982;8.560;2023-03-14T13:45:53;12.90;;;12.30;;
58982;SDS011;44771;49.982;8.560;2023-03-14T13:50:58;12.37;;;11.73;;
58982;SDS011;44771;49.982;8.560;2023-03-14T13:56:04;12.80;;;11.73;;
58982;SDS011;44771;49.982;8.560;2023-03-14T14:01:12;11.57;;;11.07;;
58982;SDS011;44771;49.982;8.560;2023-03-14T14:06:19;12.70;;;11.93;;
58982;SDS011;44771;49.982;8.560;2023-03-14T14:11:32;12.02;;;11.43;;
58982;SDS011;44771;49.982;8.560;2023-03-14T14:16:54;12.13;;;11.32;;
58982;SDS011;44771;49.982;8.560;2023-03-14T14:21:56;12.18;;;11.38;;
58982;SDS011;44771;49.982;8.560;2023-03-14T14:27:08;13.43;;;12.73;;
58982;SDS011;44771;49.982;8.560;2023-03-14T14:32:14;12.43;;;11.77;;
58982;SDS011;44771;49.982;8.560;2023-03-14T14:37:20;12.10;;;11.50;;
58982;SDS011;44771;49.982;8.560;2023-03-14T14:42:39;12.63;;;11.93;;
58982;SDS011;44771;49.982;8.560;2023-03-14T14:47:48;12.88;;;12.18;;
58982;SDS011;44771;49.982;8.560;2023-03-14T14:58:49;12.25;;;11.55;;
58982;SDS011;44771;49.982;8.560;2023-03-14T15:03:51;12.02;;;11.43;;
58982;SDS011;44771;49.982;8.560;2023-03-14T15:08:54;11.52;;;10.93;;
58982;SDS011;44771;49.982;8.560;2023-03-14T15:13:57;11.85;;;11.25;;
58982;SDS011;44771;49.982;8.560;2023-03-14T15:19:00;13.57;;;12.77;;
58982;SDS011;44771;49.982;8.560;2023-03-14T15:24:14;11.75;;;11.15;;
58982;SDS011;44771;49.982;8.560;2023-03-14T15:29:18;12.27;;;11.60;;
58982;SDS011;44771;49.982;8.560;2023-03-14T15:34:20;12.00;;;11.40;;
58982;SDS011;44771;49.982;8.560;2023-03-14T15:39:21;12.13;;;11.45;;
58982;SDS011;44771;49.982;8.560;2023-03-14T15:44:25;13.88;;;13.07;;
58982;SDS011;44771;49.982;8.560;2023-03-14T15:49:26;13.05;;;12.35;;
58982;SDS011;44771;49.982;8.560;2023-03-14T15:54:28;11.73;;;11.12;;
58982;SDS011;44771;49.982;8.560;2023-03-14T15:59:33;11.55;;;10.95;;
58982;SDS011;44771;49.982;8.560;2023-03-14T16:09:36;12.52;;;11.82;;
58982;SDS011;44771;49.982;8.560;2023-03-14T16:14:39;12.07;;;11.48;;
58982;SDS011;44771;49.982;8.560;2023-03-14T16:19:41;13.65;;;12.95;;
58982;SDS011;44771;49.982;8.560;2023-03-14T16:24:43;12.77;;;12.07;;
58982;SDS011;44771;49.982;8.560;2023-03-14T16:29:46;13.80;;;13.10;;
58982;SDS011;44771;49.982;8.560;2023-03-14T16:34:56;13.93;;;13.23;;
58982;SDS011;44771;49.982;8.560;2023-03-14T16:39:58;12.52;;;11.82;;
58982;SDS011;44771;49.982;8.560;2023-03-14T16:45:14;14.50;;;13.52;;
58982;SDS011;44771;49.982;8.560;2023-03-14T16:50:16;13.40;;;12.70;;
58982;SDS011;44771;49.982;8.560;2023-03-14T16:55:18;12.20;;;11.23;;
58982;SDS011;44771;49.982;8.560;2023-03-14T17:00:34;13.27;;;12.30;;
58982;SDS011;44771;49.982;8.560;2023-03-14T17:05:36;12.00;;;11.40;;
58982;SDS011;44771;49.982;8.560;2023-03-14T17:10:38;13.48;;;12.68;;
58982;SDS011;44771;49.982;8.560;2023-03-14T17:15:44;11.68;;;11.07;;
58982;SDS011;44771;49.982;8.560;2023-03-14T17:20:50;12.65;;;12.05;;
58982;SDS011;44771;49.982;8.560;2023-03-14T17:25:52;13.27;;;12.68;;
58982;SDS011;44771;49.982;8.560;2023-03-14T17:31:02;12.63;;;12.02;;
58982;SDS011;44771;49.982;8.560;2023-03-14T17:36:05;12.88;;;12.18;;
58982;SDS011;44771;49.982;8.560;2023-03-14T17:41:09;13.65;;;12.95;;
58982;SDS011;44771;49.982;8.560;2023-03-14T17:46:13;14.38;;;13.57;;
58982;SDS011;44771;49.982;8.560;2023-03-14T17:51:27;13.62;;;12.70;;
58982;SDS011;44771;49.982;8.560;2023-03-14T17:56:47;13.62;;;12.93;;
58982;SDS011;44771;49.982;8.560;2023-03-14T18:01:50;13.45;;;12.63;;
58982;SDS011;44771;49.982;8.560;2023-03-14T18:06:52;13.98;;;13.27;;
58982;SDS011;44771;49.982;8.560;2023-03-14T18:11:54;13.05;;;12.35;;
58982;SDS011;44771;49.982;8.560;2023-03-14T18:17:09;11.85;;;11.25;;
58982;SDS011;44771;49.982;8.560;2023-03-14T18:22:11;12.57;;;11.75;;
58982;SDS011;44771;49.982;8.560;2023-03-14T18:27:16;13.45;;;12.55;;
58982;SDS011;44771;49.982;8.560;2023-03-14T18:32:27;13.90;;;12.63;;
58982;SDS011;44771;49.982;8.560;2023-03-14T18:37:28;14.52;;;13.62;;
58982;SDS011;44771;49.982;8.560;2023-03-14T18:42:30;14.00;;;13.05;;
58982;SDS011;44771;49.982;8.560;2023-03-14T18:47:33;15.60;;;14.25;;
58982;SDS011;44771;49.982;8.560;2023-03-14T18:52:35;17.17;;;15.40;;
58982;SDS011;44771;49.982;8.560;2023-03-14T18:57:37;14.65;;;13.52;;
58982;SDS011;44771;49.982;8.560;2023-03-14T19:02:40;17.60;;;14.10;;
58982;SDS011;44771;49.982;8.560;2023-03-14T19:07:42;16.35;;;14.25;;
58982;SDS011;44771;49.982;8.560;2023-03-14T19:12:44;19.15;;;17.15;;
58982;SDS011;44771;49.982;8.560;2023-03-14T19:17:49;34.35;;;20.25;;
58982;SDS011;44771;49.982;8.560;2023-03-14T19:22:50;25.15;;;16.92;;
58982;SDS011;44771;49.982;8.560;2023-03-14T19:27:52;17.45;;;15.45;;
58982;SDS011;44771;49.982;8.560;2023-03-14T19:32:55;22.10;;;15.85;;
58982;SDS011;44771;49.982;8.560;2023-03-14T19:37:57;17.52;;;15.75;;
58982;SDS011;44771;49.982;8.560;2023-03-14T19:42:59;16.30;;;14.82;;
58982;SDS011;44771;49.982;8.560;2023-03-14T19:48:03;16.40;;;14.07;;
58982;SDS011;44771;49.982;8.560;2023-03-14T19:53:06;20.15;;;14.43;;
58982;SDS011;44771;49.982;8.560;2023-03-14T19:58:08;15.35;;;13.60;;
58982;SDS011;44771;49.982;8.560;2023-03-14T20:03:11;15.98;;;14.55;;
58982;SDS011;44771;49.982;8.560;2023-03-14T20:08:13;15.52;;;14.13;;
58982;SDS011;44771;49.982;8.560;2023-03-14T20:13:14;16.37;;;15.18;;
58982;SDS011;44771;49.982;8.560;2023-03-14T20:18:24;15.52;;;14.25;;
58982;SDS011;44771;49.982;8.560;2023-03-14T20:23:26;15.95;;;14.43;;
58982;SDS011;44771;49.982;8.560;2023-03-14T20:28:28;15.90;;;14.23;;
58982;SDS011;44771;49.982;8.560;2023-03-14T20:33:34;16.67;;;15.27;;
58982;SDS011;44771;49.982;8.560;2023-03-14T20:38:36;14.02;;;12.73;;
58982;SDS011;44771;49.982;8.560;2023-03-14T20:43:38;16.58;;;14.35;;
58982;SDS011;44771;49.982;8.560;2023-03-14T20:48:41;14.38;;;13.18;;
58982;SDS011;44771;49.982;8.560;2023-03-14T20:53:43;15.80;;;14.40;;
58982;SDS011;44771;49.982;8.560;2023-03-14T20:58:45;14.57;;;12.95;;
58982;SDS011;44771;49.982;8.560;2023-03-14T21:03:48;17.67;;;13.98;;
58982;SDS011;44771;49.982;8.560;2023-03-14T21:08:50;14.35;;;13.25;;
58982;SDS011;44771;49.982;8.560;2023-03-14T21:13:51;14.75;;;13.52;;
58982;SDS011;44771;49.982;8.560;2023-03-14T21:18:54;14.40;;;13.18;;
58982;SDS011;44771;49.982;8.560;2023-03-14T21:23:56;15.38;;;13.95;;
58982;SDS011;44771;49.982;8.560;2023-03-14T21:28:58;14.52;;;12.75;;
58982;SDS011;44771;49.982;8.560;2023-03-14T21:34:01;14.95;;;13.52;;
58982;SDS011;44771;49.982;8.560;2023-03-14T21:39:03;13.73;;;12.43;;
58982;SDS011;44771;49.982;8.560;2023-03-14T21:44:05;14.15;;;13.15;;
58982;SDS011;44771;49.982;8.560;2023-03-14T21:49:08;14.82;;;13.27;;
58982;SDS011;44771;49.982;8.560;2023-03-14T21:54:10;22.30;;;13.88;;
58982;SDS011;44771;49.982;8.560;2023-03-14T21:59:12;15.90;;;12.23;;
58982;SDS011;44771;49.982;8.560;2023-03-14T22:04:15;16.17;;;14.18;;
58982;SDS011;44771;49.982;8.560;2023-03-14T22:09:17;17.25;;;14.50;;
58982;SDS011;44771;49.982;8.560;2023-03-14T22:14:19;19.17;;;15.07;;
58982;SDS011;44771;49.982;8.560;2023-03-14T22:19:22;18.27;;;13.73;;
58982;SDS011;44771;49.982;8.560;2023-03-14T22:24:24;15.75;;;14.32;;
58982;SDS011;44771;49.982;8.560;2023-03-14T22:29:26;15.82;;;14.30;;
58982;SDS011;44771;49.982;8.560;2023-03-14T22:34:29;14.23;;;13.20;;
58982;SDS011;44771;49.982;8.560;2023-03-14T22:39:31;18.08;;;14.40;;
58982;SDS011;44771;49.982;8.560;2023-03-14T22:44:33;15.50;;;14.00;;
58982;SDS011;44771;49.982;8.560;2023-03-14T22:49:36;14.10;;;12.82;;
58982;SDS011;44771;49.982;8.560;2023-03-14T22:54:38;14.73;;;13.30;;
58982;SDS011;44771;49.982;8.560;2023-03-14T22:59:40;18.23;;;14.52;;
58982;SDS011;44771;49.982;8.560;2023-03-14T23:04:43;17.75;;;15.20;;
58982;SDS011;44771;49.982;8.560;2023-03-14T23:09:45;17.23;;;14.73;;
58982;SDS011;44771;49.982;8.560;2023-03-14T23:14:47;16.23;;;14.55;;
58982;SDS011;44771;49.982;8.560;2023-03-14T23:19:50;14.63;;;12.30;;
58982;SDS011;44771;49.982;8.560;2023-03-14T23:24:52;14.10;;;12.88;;
58982;SDS011;44771;49.982;8.560;2023-03-14T23:29:53;14.48;;;13.25;;
58982;SDS011;44771;49.982;8.560;2023-03-14T23:34:57;15.52;;;14.10;;
58982;SDS011;44771;49.982;8.560;2023-03-14T23:39:58;16.05;;;14.45;;
58982;SDS011;44771;49.982;8.560;2023-03-14T23:45:00;15.52;;;14.10;;
58982;SDS011;44771;49.982;8.560;2023-03-14T23:50:04;17.92;;;13.90;;
58982;SDS011;44771;49.982;8.560;2023-03-14T23:55:06;17.77;;;15.13;;
